| |
Missouri Department of Transportation

Social Media Facebook Twitter Flickr Instagram YouTube RSS

Current METAR Information for All MoDOT Locations 
AWOS Home - General Info for all Airports
Current AWOS for all Airports - Current METAR for all Airports
Glossary - Disclaimer - Other Links


Automated Weather Observation System
Date: 08-30-2015
 
Location Current METAR Record
HANNIBAL METAR KHAE 301148Z AUTO 00000KT 1/4SM FG OVC001 21/20 A3003 RMK AO2 LTG DSNT S
HARRISONVILLE METAR KLRY 301154Z AUTO 00000KT M1/4SM FG OVC001 21/20 A3003 RMK AO2
LEBANON METAR KLBO 301145Z AUTO 16005KT 10SM TS SCT041 19/18 A3004 RMK AO2 LTG DSNT S AND SW
MALDEN METAR KMAW 301149Z AUTO 14004KT 10SM CLR 23/21 A3003 RMK AO2 LTG DSNT S
MARSHALL  No current data available
MARYVILLE  No current data available
MEXICO  No current data available
MOBERLY  No current data available
NEVADA  No current data available
PIEDMONT  No current data available
SIKESTON  No current data available
SULLIVAN METAR KUUV 301154Z AUTO 00000KT 10SM SCT060 SCT070 SCT085 20/19 A3006 RMK AO2 TSNO
WARSAW METAR KRAW 301156Z AUTO 00000KT 3SM BR OVC030 19/19 A3002 RMK AO2 LTG DSNT S
About Us
How Do I...
Contact Us
Missouri Department of Transportation
Central Office
105 W. Capitol Avenue
Jefferson City, MO 65102
1-888-ASK-MODOT (275-6636)
1-866-831-6277 (Motor Carrier Services)
Driver's License Offices
horz_bar
| | |
Missouri State Government
© 2013 Missouri Department of Transportation. All Rights Reserved.   Privacy Policy.
 
 
 
 
RSS FeedYoutubeBlogFlickrTwitter Facebook